KNFG

Details ICAO KNFG
Name Camp Pendleton MCAS
Region United States
Timezone America/Los_Angeles (UTC-8.0)
Plans Departing 9
Arriving 7
Stats Elevation 78 ft / 24 m (AMSL)
Location 33.301390° -117.355000°
Runways 1
Magnetic Variation 11.667° E
Sunrise 2017-12-16 14:47:56 UTC / 2017-12-16 06:47:56 Local
Sunset 2017-12-17 00:45:15 UTC / 2017-12-16 16:45:15 Local
Advertisement - Login to hide

Runways

ID Width Length Bearing (true) Bearing (mag) Surface Threshold Offset Overrun Length
03 200 ft / 61 m 6,004 ft / 1,830 m 44.60° 32.93° Asphalt 0 ft / 0 m 1,000 ft / 305 m
21 200 ft / 61 m 6,004 ft / 1,830 m 224.61° 212.94° Asphalt 0 ft / 0 m 1,000 ft / 305 m

Map

Weather


0- 5 10 15 20 25 30 35+ Temperature / ° C

Clouds and Precipitation
Forecast for 2017-12-16 12:00 UTC. Updated 2 hours ago

Ground ~20,000 ft ~40,000 ft Winds

METAR

KNFG 161255Z AUTO 30003KT 10SM CLR 04/M08 A2980 RMK AO2 SLP090 T00391078

TAF

TAF KNFG 1609/1709 VRB05KT 9999 SCT250 QNH2988INS BECMG 1619/1621 21008KT 9999 FEW250 QNH2964INS BECMG 1703/1705 VRB05KT 9999 FEW250 QNH2965INS T05/1615Z T27/1621Z

Frequencies

Clearance 126.20 MHz CLNC DEL
Tower 128.77 MHz TWR
Approach 127.30 MHz SOCAL APP/DEP
Ground 128.77 MHz GND
Approach 128.45 MHz APP/DEP
Warning: Do not use this data for real-world aviation or navigation. No guarantee of current accuracy is given.